Burnet, TX (78611)

12:30 PM CDT on September 01, 2015 (GMT -0500)
Shale Valley Ranch | | Change Station
CLOSE
Current Station
Personal Weather Station
Location: Burnet, TX
Elevation: 1539 ft
Nearby Weather Stations

Elev 1539 ft 30.83 °N, 98.28 °W | Updated 4 minutes ago

Partly Cloudy
Partly Cloudy
85.4 °F
Feels Like 89 °F
N
4.0
Wind Variable Wind from SSE
Gusts 12.0 mph

Today
High -- | Low -- °F
--% Chance of Precip.
Yesterday
High -- | Low -- °F
Precip. -- in
7:09 AM 7:56 PM
Waning Gibbous, 87% visible
Pressure 30.03 in
Visibility 10.0 miles
Clouds Few 3300 ft
Heat Index 89 °F
Dew Point 69 °F
Humidity 58%
Rainfall 0.00 in
Snow Depth Not available.
UV 9 out of 12
Pollen 6.60 out of 12
Air Quality Not available.
Flu Activity Not available.
METAR KBMQ 011653Z AUTO 18007KT 10SM FEW033 29/19 A3009 RMK AO2 SLP169 T02890194
Pressure 30.03 in
Visibility 10.0 miles
Clouds Few 3300 ft
Heat Index 89 °F
Dew Point 69 °F
Humidity 58%
Rainfall 0.00 in
Snow Depth Not available.
UV 9 out of 12
Pollen 6.60 out of 12
Air Quality Not available.
Flu Activity Not available.
METAR KBMQ 011653Z AUTO 18007KT 10SM FEW033 29/19 A3009 RMK AO2 SLP169 T02890194

10-Day Weather Forecast

×

Almanac

Astronomy

Sep. 01, 2015 Rise Set
Actual Time
Civil Twilight
Nautical Twilight
Astronomical Twilight
Moon
Length of Visible Light
Length of Day
Tomorrow will be .
, % of the Moon is Illuminated

Today's Extremes

State Highs State Lows

Community

WunderPhotos

Upload Photos

1,851,568 photos uploaded!

WunderBlogs® & News

Nearby

Air Quality

  Air Quality AQ Index Pollutant
Not available.

Snow Depth

Station Depth Elevation

Earthquake Activity

City Distance Mag. Time & Date
Minimum magnitude displayed is 2.5.

Coastal Water Temperatures

Place Temperature

Stations

Nearby Weather Stations

Station Location Temp. Windchill Dew Point Humidity Wind Precip. Elev Updated Type